sensor_id;sensor_type;location;lat;lon;timestamp;pressure;altitude;pressure_sealevel;temperature;humidity
3150;BME280;32503;47.748;8.960;2023-11-19T00:00:54;97135.97;;;9.51;72.77
3150;BME280;32503;47.748;8.960;2023-11-19T00:03:21;97115.31;;;9.42;72.84
3150;BME280;32503;47.748;8.960;2023-11-19T00:05:48;97114.63;;;9.45;73.72
3150;BME280;32503;47.748;8.960;2023-11-19T00:08:16;97101.81;;;9.42;73.17
3150;BME280;32503;47.748;8.960;2023-11-19T00:10:44;97099.34;;;9.37;72.95
3150;BME280;32503;47.748;8.960;2023-11-19T00:13:12;97107.91;;;9.39;72.75
3150;BME280;32503;47.748;8.960;2023-11-19T00:15:39;97107.22;;;9.42;73.64
3150;BME280;32503;47.748;8.960;2023-11-19T00:18:06;97095.97;;;9.40;73.29
3150;BME280;32503;47.748;8.960;2023-11-19T00:20:33;97092.38;;;9.36;73.65
3150;BME280;32503;47.748;8.960;2023-11-19T00:23:00;97084.28;;;9.36;73.65
3150;BME280;32503;47.748;8.960;2023-11-19T00:25:28;97076.97;;;9.37;73.23
3150;BME280;32503;47.748;8.960;2023-11-19T00:27:56;97068.53;;;9.38;73.75
3150;BME280;32503;47.748;8.960;2023-11-19T00:30:23;97072.13;;;9.42;73.17
3150;BME280;32503;47.748;8.960;2023-11-19T00:32:50;97064.38;;;9.41;74.09
3150;BME280;32503;47.748;8.960;2023-11-19T00:35:18;97071.22;;;9.38;73.79
3150;BME280;32503;47.748;8.960;2023-11-19T00:37:45;97068.53;;;9.38;74.01
3150;BME280;32503;47.748;8.960;2023-11-19T00:40:13;97070.78;;;9.36;74.03
3150;BME280;32503;47.748;8.960;2023-11-19T00:42:41;97064.50;;;9.32;73.72
3150;BME280;32503;47.748;8.960;2023-11-19T00:45:10;97069.91;;;9.32;73.76
3150;BME280;32503;47.748;8.960;2023-11-19T00:47:38;97066.88;;;9.34;74.75
3150;BME280;32503;47.748;8.960;2023-11-19T00:50:07;97065.50;;;9.40;74.57
3150;BME280;32503;47.748;8.960;2023-11-19T00:52:35;97076.28;;;9.40;74.18
3150;BME280;32503;47.748;8.960;2023-11-19T00:55:02;97085.88;;;9.37;74.16
3150;BME280;32503;47.748;8.960;2023-11-19T00:57:29;97111.59;;;9.35;74.54
3150;BME280;32503;47.748;8.960;2023-11-19T00:59:58;97096.88;;;9.32;75.11
3150;BME280;32503;47.748;8.960;2023-11-19T01:02:27;97092.38;;;9.36;74.58
3150;BME280;32503;47.748;8.960;2023-11-19T01:04:54;97085.50;;;9.39;74.67
3150;BME280;32503;47.748;8.960;2023-11-19T01:07:21;97073.25;;;9.41;74.76
3150;BME280;32503;47.748;8.960;2023-11-19T01:09:49;97080.09;;;9.39;74.36
3150;BME280;32503;47.748;8.960;2023-11-19T01:12:17;97074.88;;;9.30;74.82
3150;BME280;32503;47.748;8.960;2023-11-19T01:14:44;97078.91;;;9.24;75.56
3150;BME280;32503;47.748;8.960;2023-11-19T01:17:11;97080.50;;;9.25;75.32
3150;BME280;32503;47.748;8.960;2023-11-19T01:19:39;97078.47;;;9.22;75.21
3150;BME280;32503;47.748;8.960;2023-11-19T01:22:09;97071.16;;;9.22;75.57
3150;BME280;32503;47.748;8.960;2023-11-19T01:24:36;97076.31;;;9.27;75.83
3150;BME280;32503;47.748;8.960;2023-11-19T01:27:04;97064.50;;;9.32;75.65
3150;BME280;32503;47.748;8.960;2023-11-19T01:29:31;97070.78;;;9.36;75.52
3150;BME280;32503;47.748;8.960;2023-11-19T01:31:58;97078.66;;;9.41;75.32
3150;BME280;32503;47.748;8.960;2023-11-19T01:34:25;97085.38;;;9.47;75.40
3150;BME280;32503;47.748;8.960;2023-11-19T01:36:55;97075.72;;;9.46;75.24
3150;BME280;32503;47.748;8.960;2023-11-19T01:39:22;97047.16;;;9.45;74.37
3150;BME280;32503;47.748;8.960;2023-11-19T01:41:49;97048.06;;;9.49;75.09
3150;BME280;32503;47.748;8.960;2023-11-19T01:44:16;97022.91;;;9.33;74.48
3150;BME280;32503;47.748;8.960;2023-11-19T01:46:45;97035.44;;;9.54;75.28
3150;BME280;32503;47.748;8.960;2023-11-19T01:49:14;97035.97;;;9.59;74.30
3150;BME280;32503;47.748;8.960;2023-11-19T01:51:42;97029.91;;;9.62;75.16
3150;BME280;32503;47.748;8.960;2023-11-19T01:54:11;97025.28;;;9.63;74.42
3150;BME280;32503;47.748;8.960;2023-11-19T01:56:40;97022.69;;;9.66;74.38
3150;BME280;32503;47.748;8.960;2023-11-19T01:59:08;97033.13;;;9.68;74.50
3150;BME280;32503;47.748;8.960;2023-11-19T02:01:37;97013.81;;;9.66;74.59
3150;BME280;32503;47.748;8.960;2023-11-19T02:04:06;97009.19;;;9.66;74.88
3150;BME280;32503;47.748;8.960;2023-11-19T02:06:34;96996.81;;;9.65;74.29
3150;BME280;32503;47.748;8.960;2023-11-19T02:09:05;97000.53;;;9.61;74.77
3150;BME280;32503;47.748;8.960;2023-11-19T02:11:34;96988.16;;;9.60;74.48
3150;BME280;32503;47.748;8.960;2023-11-19T02:14:02;96994.03;;;9.62;75.35
3150;BME280;32503;47.748;8.960;2023-11-19T02:16:30;96982.44;;;9.61;74.62
3150;BME280;32503;47.748;8.960;2023-11-19T02:18:57;96997.94;;;9.64;75.04
3150;BME280;32503;47.748;8.960;2023-11-19T02:21:24;96982.78;;;9.60;74.68
3150;BME280;32503;47.748;8.960;2023-11-19T02:23:51;96984.94;;;9.54;75.32
3150;BME280;32503;47.748;8.960;2023-11-19T02:26:24;97004.22;;;9.68;74.96
3150;BME280;32503;47.748;8.960;2023-11-19T02:28:53;97001.50;;;9.68;74.67
3150;BME280;32503;47.748;8.960;2023-11-19T02:31:20;96984.53;;;9.68;74.85
3150;BME280;32503;47.748;8.960;2023-11-19T02:33:48;96987.34;;;9.72;75.05
3150;BME280;32503;47.748;8.960;2023-11-19T02:36:16;96977.78;;;9.74;74.16
3150;BME280;32503;47.748;8.960;2023-11-19T02:38:43;96989.69;;;9.73;74.90
3150;BME280;32503;47.748;8.960;2023-11-19T02:41:10;96990.03;;;9.72;75.31
3150;BME280;32503;47.748;8.960;2023-11-19T02:43:38;96997.78;;;9.73;74.53
3150;BME280;32503;47.748;8.960;2023-11-19T02:46:06;97000.94;;;9.75;75.00
3150;BME280;32503;47.748;8.960;2023-11-19T02:48:34;96992.41;;;9.73;75.03
3150;BME280;32503;47.748;8.960;2023-11-19T02:51:04;96988.09;;;9.72;75.06
3150;BME280;32503;47.748;8.960;2023-11-19T02:53:35;96985.41;;;9.72;74.81
3150;BME280;32503;47.748;8.960;2023-11-19T02:56:03;96984.28;;;9.73;75.32
3150;BME280;32503;47.748;8.960;2023-11-19T02:58:44;96982.81;;;9.76;75.25
3150;BME280;32503;47.748;8.960;2023-11-19T03:01:13;96984.72;;;9.75;75.45
3150;BME280;32503;47.748;8.960;2023-11-19T03:03:48;96966.97;;;9.74;75.76
3150;BME280;32503;47.748;8.960;2023-11-19T03:06:20;96975.84;;;9.75;75.37
3150;BME280;32503;47.748;8.960;2023-11-19T03:08:48;96976.28;;;9.77;75.90
3150;BME280;32503;47.748;8.960;2023-11-19T03:11:15;96973.06;;;9.71;75.42
3150;BME280;32503;47.748;8.960;2023-11-19T03:13:42;96986.75;;;9.78;75.63
3150;BME280;32503;47.748;8.960;2023-11-19T03:16:09;96984.03;;;9.78;75.89
3150;BME280;32503;47.748;8.960;2023-11-19T03:18:40;96981.00;;;9.80;75.39
3150;BME280;32503;47.748;8.960;2023-11-19T03:21:08;96966.75;;;9.67;75.52
3150;BME280;32503;47.748;8.960;2023-11-19T03:23:35;96985.59;;;9.79;75.95
3150;BME280;32503;47.748;8.960;2023-11-19T03:26:06;96982.47;;;9.77;75.66
3150;BME280;32503;47.748;8.960;2023-11-19T03:28:33;96989.09;;;9.80;75.75
3150;BME280;32503;47.748;8.960;2023-11-19T03:31:01;96991.00;;;9.79;75.03
3150;BME280;32503;47.748;8.960;2023-11-19T03:33:28;96983.28;;;9.78;75.23
3150;BME280;32503;47.748;8.960;2023-11-19T03:35:56;96986.31;;;9.76;75.33
3150;BME280;32503;47.748;8.960;2023-11-19T03:38:23;96990.22;;;9.79;75.52
3150;BME280;32503;47.748;8.960;2023-11-19T03:40:51;97000.59;;;9.77;76.58
3150;BME280;32503;47.748;8.960;2023-11-19T03:43:18;96998.22;;;9.75;75.88
3150;BME280;32503;47.748;8.960;2023-11-19T03:45:45;97001.38;;;9.77;76.41
3150;BME280;32503;47.748;8.960;2023-11-19T03:48:13;97000.25;;;9.78;76.05
3150;BME280;32503;47.748;8.960;2023-11-19T03:50:44;96992.59;;;9.80;76.46
3150;BME280;32503;47.748;8.960;2023-11-19T03:53:13;96999.56;;;9.81;76.64
3150;BME280;32503;47.748;8.960;2023-11-19T03:55:40;96991.91;;;9.83;75.79
3150;BME280;32503;47.748;8.960;2023-11-19T03:58:07;96990.41;;;9.86;76.09
3150;BME280;32503;47.748;8.960;2023-11-19T04:00:35;96991.13;;;9.83;76.44
3150;BME280;32503;47.748;8.960;2023-11-19T04:03:02;96980.50;;;9.90;75.90
3150;BME280;32503;47.748;8.960;2023-11-19T04:05:30;96980.84;;;9.89;76.55
3150;BME280;32503;47.748;8.960;2023-11-19T04:07:59;96980.41;;;9.86;76.36
3150;BME280;32503;47.748;8.960;2023-11-19T04:10:27;96985.09;;;9.90;76.34
3150;BME280;32503;47.748;8.960;2023-11-19T04:12:54;96992.75;;;9.87;77.31
3150;BME280;32503;47.748;8.960;2023-11-19T04:15:21;97000.53;;;9.89;76.88
3150;BME280;32503;47.748;8.960;2023-11-19T04:17:49;96995.91;;;9.90;77.20
3150;BME280;32503;47.748;8.960;2023-11-19T04:20:16;96996.00;;;9.93;76.46
3150;BME280;32503;47.748;8.960;2023-11-19T04:22:45;97000.63;;;9.93;77.05
3150;BME280;32503;47.748;8.960;2023-11-19T04:25:12;97003.31;;;9.93;76.94
3150;BME280;32503;47.748;8.960;2023-11-19T04:27:42;97002.97;;;9.94;77.67
3150;BME280;32503;47.748;8.960;2023-11-19T04:30:10;96996.88;;;9.97;77.57
3150;BME280;32503;47.748;8.960;2023-11-19T04:32:37;97002.28;;;9.97;77.70
3150;BME280;32503;47.748;8.960;2023-11-19T04:35:05;97008.13;;;9.99;77.90
3150;BME280;32503;47.748;8.960;2023-11-19T04:37:33;97008.91;;;10.00;78.46
3150;BME280;32503;47.748;8.960;2023-11-19T04:40:00;96979.00;;;9.93;77.36
3150;BME280;32503;47.748;8.960;2023-11-19T04:42:27;97002.38;;;10.01;78.04
3150;BME280;32503;47.748;8.960;2023-11-19T04:44:56;97000.13;;;10.03;78.48
3150;BME280;32503;47.748;8.960;2023-11-19T04:47:26;96999.44;;;10.06;77.97
3150;BME280;32503;47.748;8.960;2023-11-19T04:49:56;96987.47;;;10.07;77.98
3150;BME280;32503;47.748;8.960;2023-11-19T04:52:23;96994.53;;;10.12;78.46
3150;BME280;32503;47.748;8.960;2023-11-19T04:54:50;96989.91;;;10.12;78.71
3150;BME280;32503;47.748;8.960;2023-11-19T04:57:17;96987.22;;;10.12;78.91
3150;BME280;32503;47.748;8.960;2023-11-19T04:59:44;96999.50;;;10.10;78.34
3150;BME280;32503;47.748;8.960;2023-11-19T05:02:13;96992.88;;;10.07;78.25
3150;BME280;32503;47.748;8.960;2023-11-19T05:04:43;96993.78;;;10.11;78.42
3150;BME280;32503;47.748;8.960;2023-11-19T05:07:12;96998.78;;;10.13;78.64
3150;BME280;32503;47.748;8.960;2023-11-19T05:09:39;97001.16;;;10.14;78.57
3150;BME280;32503;47.748;8.960;2023-11-19T05:12:07;96986.53;;;10.15;78.69
3150;BME280;32503;47.748;8.960;2023-11-19T05:14:35;96986.53;;;10.15;78.69
3150;BME280;32503;47.748;8.960;2023-11-19T05:17:03;96982.25;;;10.14;78.99
3150;BME280;32503;47.748;8.960;2023-11-19T05:19:31;96974.56;;;10.16;78.91
3150;BME280;32503;47.748;8.960;2023-11-19T05:21:58;96971.53;;;10.18;79.48
3150;BME280;32503;47.748;8.960;2023-11-19T05:24:25;96971.88;;;10.16;79.38
3150;BME280;32503;47.748;8.960;2023-11-19T05:26:52;96981.72;;;10.24;79.42
3150;BME280;32503;47.748;8.960;2023-11-19T05:29:19;96972.94;;;10.28;79.10
3150;BME280;32503;47.748;8.960;2023-11-19T05:31:46;96969.88;;;10.29;78.82
3150;BME280;32503;47.748;8.960;2023-11-19T05:34:13;96972.25;;;10.31;79.36
3150;BME280;32503;47.748;8.960;2023-11-19T05:36:42;96959.97;;;10.33;78.78
3150;BME280;32503;47.748;8.960;2023-11-19T05:39:10;96971.63;;;10.37;78.64
3150;BME280;32503;47.748;8.960;2023-11-19T05:41:37;96980.56;;;10.38;78.87
3150;BME280;32503;47.748;8.960;2023-11-19T05:44:04;96977.03;;;10.37;78.59
3150;BME280;32503;47.748;8.960;2023-11-19T05:46:32;96973.56;;;10.37;79.36
3150;BME280;32503;47.748;8.960;2023-11-19T05:48:59;96986.38;;;10.40;78.98
3150;BME280;32503;47.748;8.960;2023-11-19T05:51:26;96984.03;;;10.38;78.82
3150;BME280;32503;47.748;8.960;2023-11-19T05:53:54;96991.78;;;10.40;78.53
3150;BME280;32503;47.748;8.960;2023-11-19T05:56:23;96990.28;;;10.42;78.42
3150;BME280;32503;47.748;8.960;2023-11-19T05:58:50;96985.22;;;10.41;78.56
3150;BME280;32503;47.748;8.960;2023-11-19T06:01:17;96989.50;;;10.42;79.02
3150;BME280;32503;47.748;8.960;2023-11-19T06:03:44;96988.31;;;10.39;78.52
3150;BME280;32503;47.748;8.960;2023-11-19T06:06:15;96986.47;;;10.43;78.66
3150;BME280;32503;47.748;8.960;2023-11-19T06:08:42;96984.53;;;10.44;78.74
3150;BME280;32503;47.748;8.960;2023-11-19T06:11:11;96977.66;;;10.47;79.03
3150;BME280;32503;47.748;8.960;2023-11-19T06:13:40;96983.50;;;10.49;79.28
3150;BME280;32503;47.748;8.960;2023-11-19T06:16:08;96982.69;;;10.48;78.69
3150;BME280;32503;47.748;8.960;2023-11-19T06:18:36;96982.81;;;10.52;79.01
3150;BME280;32503;47.748;8.960;2023-11-19T06:21:04;96978.59;;;10.54;78.83
3150;BME280;32503;47.748;8.960;2023-11-19T06:23:31;96979.81;;;10.57;79.03
3150;BME280;32503;47.748;8.960;2023-11-19T06:26:01;96979.03;;;10.56;79.17
3150;BME280;32503;47.748;8.960;2023-11-19T06:28:30;96976.41;;;10.60;78.99
3150;BME280;32503;47.748;8.960;2023-11-19T06:30:57;96963.44;;;10.50;78.91
3150;BME280;32503;47.748;8.960;2023-11-19T06:33:24;96975.38;;;10.65;79.37
3150;BME280;32503;47.748;8.960;2023-11-19T06:35:52;96975.28;;;10.61;79.26
3150;BME280;32503;47.748;8.960;2023-11-19T06:38:20;96988.19;;;10.68;79.78
3150;BME280;32503;47.748;8.960;2023-11-19T06:40:47;96991.69;;;10.68;79.98
3150;BME280;32503;47.748;8.960;2023-11-19T06:43:14;96996.81;;;10.73;79.38
3150;BME280;32503;47.748;8.960;2023-11-19T06:45:42;96989.91;;;10.76;79.51
3150;BME280;32503;47.748;8.960;2023-11-19T06:48:09;96985.28;;;10.76;79.48
3150;BME280;32503;47.748;8.960;2023-11-19T06:50:36;96984.84;;;10.74;79.77
3150;BME280;32503;47.748;8.960;2023-11-19T06:53:04;96991.06;;;10.75;80.58
3150;BME280;32503;47.748;8.960;2023-11-19T06:55:32;96991.06;;;10.75;80.13
3150;BME280;32503;47.748;8.960;2023-11-19T06:58:00;96990.91;;;10.68;80.88
3150;BME280;32503;47.748;8.960;2023-11-19T07:00:28;96995.59;;;10.71;81.01
3150;BME280;32503;47.748;8.960;2023-11-19T07:02:56;97001.06;;;10.74;81.42
3150;BME280;32503;47.748;8.960;2023-11-19T07:05:23;97003.69;;;10.71;81.77
3150;BME280;32503;47.748;8.960;2023-11-19T07:07:53;96998.28;;;10.71;81.71
3150;BME280;32503;47.748;8.960;2023-11-19T07:10:21;97012.69;;;10.75;81.18
3150;BME280;32503;47.748;8.960;2023-11-19T07:12:48;96996.38;;;10.71;81.35
3150;BME280;32503;47.748;8.960;2023-11-19T07:15:16;97003.34;;;10.72;81.93
3150;BME280;32503;47.748;8.960;2023-11-19T07:17:45;97009.72;;;10.80;81.23
3150;BME280;32503;47.748;8.960;2023-11-19T07:20:15;97003.59;;;10.83;82.16
3150;BME280;32503;47.748;8.960;2023-11-19T07:22:45;97005.69;;;10.90;81.53
3150;BME280;32503;47.748;8.960;2023-11-19T07:25:15;96999.22;;;10.94;81.82
3150;BME280;32503;47.748;8.960;2023-11-19T07:27:43;97007.84;;;11.00;81.73
3150;BME280;32503;47.748;8.960;2023-11-19T07:30:10;97007.22;;;11.07;81.50
3150;BME280;32503;47.748;8.960;2023-11-19T07:32:37;97005.78;;;11.13;82.07
3150;BME280;32503;47.748;8.960;2023-11-19T07:35:06;97010.22;;;11.21;82.07
3150;BME280;32503;47.748;8.960;2023-11-19T07:37:34;97007.25;;;11.26;82.22
3150;BME280;32503;47.748;8.960;2023-11-19T07:40:01;97014.81;;;11.36;82.21
3150;BME280;32503;47.748;8.960;2023-11-19T07:42:29;97019.63;;;11.47;82.28
3150;BME280;32503;47.748;8.960;2023-11-19T07:44:57;97013.50;;;11.50;82.74
3150;BME280;32503;47.748;8.960;2023-11-19T07:47:24;97018.28;;;11.56;83.18
3150;BME280;32503;47.748;8.960;2023-11-19T07:49:51;97019.19;;;11.64;83.21
3150;BME280;32503;47.748;8.960;2023-11-19T07:52:18;97022.41;;;11.70;82.79
3150;BME280;32503;47.748;8.960;2023-11-19T07:54:46;97024.03;;;11.74;83.43
3150;BME280;32503;47.748;8.960;2023-11-19T07:57:13;97022.25;;;11.82;83.13
3150;BME280;32503;47.748;8.960;2023-11-19T07:59:40;97030.44;;;11.86;82.67
3150;BME280;32503;47.748;8.960;2023-11-19T08:02:07;97022.91;;;11.95;82.71
3150;BME280;32503;47.748;8.960;2023-11-19T08:04:36;97026.91;;;12.01;82.78
3150;BME280;32503;47.748;8.960;2023-11-19T08:07:05;97024.19;;;12.01;83.06
3150;BME280;32503;47.748;8.960;2023-11-19T08:09:32;97024.59;;;12.03;82.57
3150;BME280;32503;47.748;8.960;2023-11-19T08:12:06;97025.06;;;12.05;82.98
3150;BME280;32503;47.748;8.960;2023-11-19T08:14:35;97025.47;;;12.07;82.51
3150;BME280;32503;47.748;8.960;2023-11-19T08:17:03;97020.88;;;12.11;82.57
3150;BME280;32503;47.748;8.960;2023-11-19T08:19:30;97026.00;;;12.17;82.86
3150;BME280;32503;47.748;8.960;2023-11-19T08:21:57;97025.72;;;12.22;82.34
3150;BME280;32503;47.748;8.960;2023-11-19T08:24:24;97025.41;;;12.27;82.31
3150;BME280;32503;47.748;8.960;2023-11-19T08:26:51;97023.84;;;12.26;82.63
3150;BME280;32503;47.748;8.960;2023-11-19T08:29:19;96983.47;;;11.98;82.36
3150;BME280;32503;47.748;8.960;2023-11-19T08:31:47;97041.09;;;12.37;82.78
3150;BME280;32503;47.748;8.960;2023-11-19T08:34:14;97033.38;;;12.39;82.47
3150;BME280;32503;47.748;8.960;2023-11-19T08:36:41;97030.47;;;12.51;83.06
3150;BME280;32503;47.748;8.960;2023-11-19T08:39:08;97029.63;;;12.97;83.48
3150;BME280;32503;47.748;8.960;2023-11-19T08:41:35;97037.66;;;13.17;82.12
3150;BME280;32503;47.748;8.960;2023-11-19T08:44:04;97033.31;;;13.12;81.07
3150;BME280;32503;47.748;8.960;2023-11-19T08:46:34;97028.25;;;13.11;81.38
3150;BME280;32503;47.748;8.960;2023-11-19T08:49:01;97031.34;;;13.09;81.59
3150;BME280;32503;47.748;8.960;2023-11-19T08:51:28;97030.91;;;13.07;81.26
3150;BME280;32503;47.748;8.960;2023-11-19T08:53:56;97034.03;;;13.09;81.49
3150;BME280;32503;47.748;8.960;2023-11-19T08:56:23;97034.41;;;13.07;81.45
3150;BME280;32503;47.748;8.960;2023-11-19T08:58:50;97033.28;;;13.08;81.57
3150;BME280;32503;47.748;8.960;2023-11-19T09:01:17;97027.91;;;13.12;81.63
3150;BME280;32503;47.748;8.960;2023-11-19T09:03:45;97035.69;;;13.14;81.76
3150;BME280;32503;47.748;8.960;2023-11-19T09:06:12;97036.91;;;13.20;81.41
3150;BME280;32503;47.748;8.960;2023-11-19T09:08:39;97045.09;;;13.23;81.69
3150;BME280;32503;47.748;8.960;2023-11-19T09:11:07;97046.81;;;13.32;81.87
3150;BME280;32503;47.748;8.960;2023-11-19T09:13:35;97043.34;;;13.35;81.66
3150;BME280;32503;47.748;8.960;2023-11-19T09:16:03;97043.44;;;13.42;81.69
3150;BME280;32503;47.748;8.960;2023-11-19T09:18:30;97046.16;;;13.42;81.46
3150;BME280;32503;47.748;8.960;2023-11-19T09:20:59;97040.00;;;13.45;81.52
3150;BME280;32503;47.748;8.960;2023-11-19T09:23:26;97053.25;;;13.50;81.26
3150;BME280;32503;47.748;8.960;2023-11-19T09:25:53;97033.81;;;13.48;80.73
3150;BME280;32503;47.748;8.960;2023-11-19T09:28:20;97049.47;;;13.58;80.70
3150;BME280;32503;47.748;8.960;2023-11-19T09:30:48;97054.91;;;13.58;80.76
3150;BME280;32503;47.748;8.960;2023-11-19T09:33:15;97049.91;;;13.64;80.42
3150;BME280;32503;47.748;8.960;2023-11-19T09:35:44;97058.56;;;13.70;80.54
3150;BME280;32503;47.748;8.960;2023-11-19T09:38:12;97055.91;;;13.77;80.13
3150;BME280;32503;47.748;8.960;2023-11-19T09:40:40;97052.94;;;13.89;80.00
3150;BME280;32503;47.748;8.960;2023-11-19T09:43:10;97044.41;;;13.87;79.50
3150;BME280;32503;47.748;8.960;2023-11-19T09:45:48;97045.28;;;13.98;79.42
3150;BME280;32503;47.748;8.960;2023-11-19T09:48:17;97050.94;;;14.20;79.26
3150;BME280;32503;47.748;8.960;2023-11-19T09:50:46;97032.13;;;14.04;78.90
3150;BME280;32503;47.748;8.960;2023-11-19T09:53:15;97058.63;;;14.52;78.21
3150;BME280;32503;47.748;8.960;2023-11-19T09:55:43;97037.53;;;14.83;77.20
3150;BME280;32503;47.748;8.960;2023-11-19T09:58:12;97034.63;;;15.16;75.72
3150;BME280;32503;47.748;8.960;2023-11-19T10:00:41;97012.16;;;15.30;74.24
3150;BME280;32503;47.748;8.960;2023-11-19T10:03:11;97029.41;;;15.60;72.76
3150;BME280;32503;47.748;8.960;2023-11-19T10:05:39;97030.34;;;15.96;72.12
3150;BME280;32503;47.748;8.960;2023-11-19T10:08:07;97022.59;;;16.16;70.98
3150;BME280;32503;47.748;8.960;2023-11-19T10:10:37;97025.31;;;16.30;69.89
3150;BME280;32503;47.748;8.960;2023-11-19T10:13:05;97019.53;;;16.50;69.17
3150;BME280;32503;47.748;8.960;2023-11-19T10:15:36;97014.06;;;16.57;69.25
3150;BME280;32503;47.748;8.960;2023-11-19T10:18:04;97012.50;;;16.56;68.59
3150;BME280;32503;47.748;8.960;2023-11-19T10:20:35;97011.72;;;16.66;68.24
3150;BME280;32503;47.748;8.960;2023-11-19T10:23:03;97016.38;;;17.02;67.95
3150;BME280;32503;47.748;8.960;2023-11-19T10:25:31;97017.13;;;17.31;66.79
3150;BME280;32503;47.748;8.960;2023-11-19T10:28:00;97017.00;;;17.60;65.58
3150;BME280;32503;47.748;8.960;2023-11-19T10:30:30;97019.34;;;17.65;65.38
3150;BME280;32503;47.748;8.960;2023-11-19T10:33:06;97015.84;;;17.54;65.08
3150;BME280;32503;47.748;8.960;2023-11-19T10:35:35;97005.00;;;17.32;65.60
3150;BME280;32503;47.748;8.960;2023-11-19T10:38:14;96994.00;;;17.50;65.73
3150;BME280;32503;47.748;8.960;2023-11-19T10:40:42;96995.94;;;17.57;65.30
3150;BME280;32503;47.748;8.960;2023-11-19T10:43:11;96994.38;;;17.49;64.94
3150;BME280;32503;47.748;8.960;2023-11-19T10:45:38;96988.97;;;17.34;65.22
3150;BME280;32503;47.748;8.960;2023-11-19T10:48:06;96987.06;;;17.24;65.66
3150;BME280;32503;47.748;8.960;2023-11-19T10:50:34;96975.78;;;17.08;65.68
3150;BME280;32503;47.748;8.960;2023-11-19T10:53:04;96985.97;;;17.00;65.95
3150;BME280;32503;47.748;8.960;2023-11-19T10:55:32;96977.41;;;16.58;67.68
3150;BME280;32503;47.748;8.960;2023-11-19T10:58:02;96985.97;;;16.32;68.77
3150;BME280;32503;47.748;8.960;2023-11-19T11:00:38;96976.59;;;16.11;69.68
3150;BME280;32503;47.748;8.960;2023-11-19T11:03:15;96954.78;;;16.07;70.06
3150;BME280;32503;47.748;8.960;2023-11-19T11:05:46;96958.69;;;16.03;69.88
3150;BME280;32503;47.748;8.960;2023-11-19T11:08:14;96942.31;;;16.03;70.15
3150;BME280;32503;47.748;8.960;2023-11-19T11:10:45;96943.09;;;16.00;69.92
3150;BME280;32503;47.748;8.960;2023-11-19T11:13:14;96915.06;;;16.10;69.55
3150;BME280;32503;47.748;8.960;2023-11-19T11:15:42;96941.56;;;16.45;68.58
3150;BME280;32503;47.748;8.960;2023-11-19T11:18:13;96950.47;;;16.67;67.57
3150;BME280;32503;47.748;8.960;2023-11-19T11:20:40;96936.84;;;16.75;67.11
3150;BME280;32503;47.748;8.960;2023-11-19T11:23:47;96954.78;;;16.86;66.66
3150;BME280;32503;47.748;8.960;2023-11-19T11:27:06;96955.16;;;16.85;66.39
3150;BME280;32503;47.748;8.960;2023-11-19T11:29:41;96957.09;;;16.81;66.39
3150;BME280;32503;47.748;8.960;2023-11-19T11:32:25;96961.81;;;16.73;66.49
3150;BME280;32503;47.748;8.960;2023-11-19T11:35:14;96960.59;;;16.78;66.78
3150;BME280;32503;47.748;8.960;2023-11-19T11:38:00;96950.09;;;16.76;66.80
3150;BME280;32503;47.748;8.960;2023-11-19T11:40:27;96951.53;;;17.24;66.28
3150;BME280;32503;47.748;8.960;2023-11-19T11:42:54;96952.69;;;17.37;64.79
3150;BME280;32503;47.748;8.960;2023-11-19T11:45:35;96956.19;;;17.34;64.42
3150;BME280;32503;47.748;8.960;2023-11-19T11:48:10;96965.63;;;17.19;64.80
3150;BME280;32503;47.748;8.960;2023-11-19T11:50:54;96957.06;;;17.02;65.21
3150;BME280;32503;47.748;8.960;2023-11-19T11:53:22;96957.91;;;16.85;66.22
3150;BME280;32503;47.748;8.960;2023-11-19T11:55:59;96943.84;;;16.76;66.23
3150;BME280;32503;47.748;8.960;2023-11-19T11:58:36;96944.66;;;16.91;66.50
3150;BME280;32503;47.748;8.960;2023-11-19T12:01:05;96953.16;;;17.14;65.76
3150;BME280;32503;47.748;8.960;2023-11-19T12:03:33;96946.91;;;17.17;65.27
3150;BME280;32503;47.748;8.960;2023-11-19T12:06:01;96942.16;;;17.29;64.70
3150;BME280;32503;47.748;8.960;2023-11-19T12:08:29;96917.53;;;17.36;64.54
3150;BME280;32503;47.748;8.960;2023-11-19T12:10:58;96935.88;;;17.39;64.18
3150;BME280;32503;47.748;8.960;2023-11-19T12:13:46;96933.53;;;17.37;64.21
3150;BME280;32503;47.748;8.960;2023-11-19T12:16:13;96937.47;;;17.29;64.49
3150;BME280;32503;47.748;8.960;2023-11-19T12:18:41;96936.72;;;17.25;64.66
3150;BME280;32503;47.748;8.960;2023-11-19T12:21:08;96925.38;;;17.34;64.70
3150;BME280;32503;47.748;8.960;2023-11-19T12:23:46;96930.50;;;17.17;64.65
3150;BME280;32503;47.748;8.960;2023-11-19T12:26:37;96922.00;;;16.79;65.51
3150;BME280;32503;47.748;8.960;2023-11-19T12:29:07;96922.00;;;16.76;65.98
3150;BME280;32503;47.748;8.960;2023-11-19T12:31:34;96915.00;;;16.67;66.28
3150;BME280;32503;47.748;8.960;2023-11-19T12:34:08;96911.13;;;16.54;66.62
3150;BME280;32503;47.748;8.960;2023-11-19T12:36:39;96915.03;;;16.57;66.66
3150;BME280;32503;47.748;8.960;2023-11-19T12:39:07;96911.16;;;16.40;67.05
3150;BME280;32503;47.748;8.960;2023-11-19T12:41:50;96912.31;;;16.35;67.37
3150;BME280;32503;47.748;8.960;2023-11-19T12:44:17;96911.94;;;16.40;67.38
3150;BME280;32503;47.748;8.960;2023-11-19T12:46:44;96922.09;;;16.29;67.62
3150;BME280;32503;47.748;8.960;2023-11-19T12:49:13;96925.19;;;16.24;67.72
3150;BME280;32503;47.748;8.960;2023-11-19T12:51:40;96933.75;;;16.26;67.87
3150;BME280;32503;47.748;8.960;2023-11-19T12:54:07;96924.81;;;16.36;67.78
3150;BME280;32503;47.748;8.960;2023-11-19T12:56:34;96925.56;;;16.40;67.93
3150;BME280;32503;47.748;8.960;2023-11-19T12:59:11;96918.16;;;16.37;68.03
3150;BME280;32503;47.748;8.960;2023-11-19T13:01:38;96907.25;;;16.41;68.03
3150;BME280;32503;47.748;8.960;2023-11-19T13:04:18;96907.63;;;16.43;67.83
3150;BME280;32503;47.748;8.960;2023-11-19T13:06:45;96902.59;;;16.38;68.28
3150;BME280;32503;47.748;8.960;2023-11-19T13:09:22;96918.16;;;16.23;68.62
3150;BME280;32503;47.748;8.960;2023-11-19T13:11:50;96928.31;;;16.29;68.50
3150;BME280;32503;47.748;8.960;2023-11-19T13:14:18;96918.56;;;16.32;68.63
3150;BME280;32503;47.748;8.960;2023-11-19T13:16:46;96918.16;;;16.26;68.89
3150;BME280;32503;47.748;8.960;2023-11-19T13:19:13;96918.19;;;16.19;69.76
3150;BME280;32503;47.748;8.960;2023-11-19T13:21:43;96910.00;;;16.26;69.32
3150;BME280;32503;47.748;8.960;2023-11-19T13:24:13;96914.28;;;16.35;69.85